createdAt,value
2022-09-11T00:01:45.438Z,24.40
2022-09-11T00:04:12.857Z,24.40
2022-09-11T00:06:40.965Z,24.24
2022-09-11T00:09:08.288Z,24.35
2022-09-11T00:11:40.350Z,24.14
2022-09-11T00:14:08.183Z,24.16
2022-09-11T00:16:36.691Z,24.06
2022-09-11T00:19:05.246Z,24.22
2022-09-11T00:21:32.787Z,24.11
2022-09-11T00:24:01.558Z,24.12
2022-09-11T00:26:28.663Z,24.31
2022-09-11T00:28:56.115Z,24.18
2022-09-11T00:31:24.656Z,24.14
2022-09-11T00:33:51.912Z,24.07
2022-09-11T00:36:19.865Z,23.93
2022-09-11T00:38:47.669Z,23.78
2022-09-11T00:41:16.428Z,23.59
2022-09-11T00:43:57.577Z,23.61
2022-09-11T00:46:26.318Z,23.61
2022-09-11T00:48:53.494Z,23.37
2022-09-11T00:51:21.954Z,23.67
2022-09-11T00:53:49.421Z,23.69
2022-09-11T00:56:16.533Z,23.27
2022-09-11T00:58:44.182Z,23.30
2022-09-11T01:01:13.323Z,23.51
2022-09-11T01:03:40.868Z,23.22
2022-09-11T01:06:08.112Z,23.23
2022-09-11T01:08:38.394Z,23.37
2022-09-11T01:11:18.004Z,23.58
2022-09-11T01:14:05.646Z,23.59
2022-09-11T01:16:35.533Z,23.38
2022-09-11T01:19:06.373Z,22.74
2022-09-11T01:21:45.826Z,23.42
2022-09-11T01:24:13.397Z,23.62
2022-09-11T01:26:43.517Z,23.16
2022-09-11T01:29:13.572Z,23.62
2022-09-11T01:31:41.970Z,23.35
2022-09-11T01:34:44.668Z,22.61
2022-09-11T01:37:17.628Z,22.23
2022-09-11T01:39:46.681Z,22.22
2022-09-11T01:42:17.252Z,22.15
2022-09-11T01:44:49.172Z,22.32
2022-09-11T01:47:17.010Z,22.46
2022-09-11T01:49:45.607Z,22.70
2022-09-11T01:52:13.303Z,21.72
2022-09-11T01:54:45.237Z,22.31
2022-09-11T01:57:16.115Z,22.37
2022-09-11T01:59:44.614Z,21.89
2022-09-11T02:02:12.851Z,20.93
2022-09-11T02:04:42.021Z,20.76
2022-09-11T02:07:15.462Z,21.80
2022-09-11T02:09:47.770Z,20.22
2022-09-11T02:12:15.742Z,20.54
2022-09-11T02:14:44.138Z,20.17
2022-09-11T02:17:18.192Z,21.24
2022-09-11T02:19:46.000Z,20.11
2022-09-11T02:22:13.826Z,20.84
2022-09-11T02:24:40.934Z,19.67
2022-09-11T02:27:09.401Z,21.11
2022-09-11T02:29:36.824Z,20.85
2022-09-11T02:32:04.296Z,20.35
2022-09-11T02:34:33.477Z,21.59
2022-09-11T02:37:01.137Z,21.57
2022-09-11T02:39:42.228Z,21.89
2022-09-11T02:42:16.035Z,21.74
2022-09-11T02:44:49.056Z,21.81
2022-09-11T02:47:43.004Z,21.84
2022-09-11T02:50:17.407Z,20.59
2022-09-11T02:52:49.433Z,21.01
2022-09-11T02:55:23.117Z,20.61
2022-09-11T02:58:10.751Z,20.53
2022-09-11T03:00:39.288Z,21.39
2022-09-11T03:03:07.491Z,21.91
2022-09-11T03:05:37.187Z,21.90
2022-09-11T03:08:04.385Z,21.94
2022-09-11T03:10:31.936Z,21.58
2022-09-11T03:12:59.765Z,20.50
2022-09-11T03:15:27.790Z,21.42
2022-09-11T03:17:55.366Z,21.91
2022-09-11T03:20:22.997Z,21.59
2022-09-11T03:22:50.153Z,21.34
2022-09-11T03:25:17.835Z,21.78
2022-09-11T03:27:45.200Z,22.14
2022-09-11T03:30:12.958Z,22.25
2022-09-11T03:32:40.410Z,22.45
2022-09-11T03:35:07.790Z,22.48
2022-09-11T03:37:37.523Z,22.39
2022-09-11T03:40:05.164Z,21.78
2022-09-11T03:42:33.411Z,21.90
2022-09-11T03:45:00.609Z,22.58
2022-09-11T03:47:28.043Z,23.09
2022-09-11T03:49:56.030Z,22.71
2022-09-11T03:52:23.172Z,22.72
2022-09-11T03:54:50.680Z,22.46
2022-09-11T03:57:18.283Z,22.87
2022-09-11T03:59:45.406Z,21.67
2022-09-11T04:02:12.845Z,21.90
2022-09-11T04:04:41.317Z,22.08
2022-09-11T04:07:08.491Z,21.05
2022-09-11T04:09:35.621Z,21.45
2022-09-11T04:12:03.079Z,21.20
2022-09-11T04:14:30.198Z,21.76
2022-09-11T04:16:57.622Z,21.64
2022-09-11T04:19:25.981Z,22.19
2022-09-11T04:21:53.558Z,22.52
2022-09-11T04:24:21.374Z,22.84
2022-09-11T04:26:48.813Z,22.99
2022-09-11T04:29:17.806Z,23.03
2022-09-11T04:31:45.867Z,23.19
2022-09-11T04:34:13.843Z,23.19
2022-09-11T04:36:40.970Z,23.15
2022-09-11T04:39:09.694Z,23.21
2022-09-11T04:41:37.609Z,23.40
2022-09-11T04:44:05.746Z,23.50
2022-09-11T04:46:34.620Z,23.43
2022-09-11T04:49:02.389Z,23.52
2022-09-11T04:51:34.019Z,23.81
2022-09-11T04:54:01.718Z,23.98
2022-09-11T04:56:30.104Z,23.90
2022-09-11T04:58:58.727Z,23.95
2022-09-11T05:01:28.003Z,23.90
2022-09-11T05:03:56.189Z,23.94
2022-09-11T05:06:23.390Z,23.98
2022-09-11T05:08:51.117Z,23.79
2022-09-11T05:11:18.954Z,23.81
2022-09-11T05:13:46.580Z,23.99
2022-09-11T05:16:15.593Z,24.25
2022-09-11T05:18:43.746Z,24.28
2022-09-11T05:21:15.211Z,24.35
2022-09-11T05:23:42.859Z,24.23
2022-09-11T05:26:19.786Z,24.05
2022-09-11T05:28:47.563Z,24.25
2022-09-11T05:31:16.325Z,24.23
2022-09-11T05:33:44.620Z,23.88
2022-09-11T05:36:12.635Z,23.55
2022-09-11T05:38:40.097Z,24.16
2022-09-11T05:41:08.785Z,23.94
2022-09-11T05:43:38.110Z,23.87
2022-09-11T05:46:05.999Z,23.66
2022-09-11T05:48:33.731Z,23.45
2022-09-11T05:51:02.261Z,23.23
2022-09-11T05:53:32.143Z,23.21
2022-09-11T05:56:00.390Z,23.12
2022-09-11T05:58:30.990Z,23.51
2022-09-11T06:01:08.466Z,23.37
2022-09-11T06:03:36.484Z,23.67
2022-09-11T06:06:05.498Z,23.88
2022-09-11T06:08:34.538Z,23.92
2022-09-11T06:11:02.763Z,23.34
2022-09-11T06:13:30.326Z,22.88
2022-09-11T06:15:59.627Z,23.30
2022-09-11T06:18:27.063Z,22.36
2022-09-11T06:21:00.925Z,23.06
2022-09-11T06:23:28.587Z,22.97
2022-09-11T06:26:02.482Z,22.59
2022-09-11T06:28:30.531Z,23.29
2022-09-11T06:30:58.399Z,22.82
2022-09-11T06:33:25.705Z,23.11
2022-09-11T06:35:59.735Z,23.27
2022-09-11T06:38:27.028Z,22.44
2022-09-11T06:40:55.660Z,23.23
2022-09-11T06:43:22.762Z,23.39
2022-09-11T06:45:50.097Z,22.64
2022-09-11T06:48:17.750Z,22.11
2022-09-11T06:50:45.456Z,21.31
2022-09-11T06:53:15.427Z,21.14
2022-09-11T06:55:45.637Z,21.22
2022-09-11T06:58:13.987Z,21.74
2022-09-11T07:00:42.704Z,21.89
2022-09-11T07:03:11.447Z,22.15
2022-09-11T07:05:38.578Z,22.70
2022-09-11T07:08:05.736Z,22.46
2022-09-11T07:10:34.142Z,22.80
2022-09-11T07:13:01.568Z,22.97
2022-09-11T07:15:29.546Z,22.91
2022-09-11T07:17:57.961Z,22.54
2022-09-11T07:20:25.602Z,22.43
2022-09-11T07:22:53.110Z,22.87
2022-09-11T07:25:20.975Z,22.61
2022-09-11T07:27:48.227Z,22.17
2022-09-11T07:30:15.552Z,23.01
2022-09-11T07:32:43.099Z,23.60
2022-09-11T07:35:10.254Z,23.27
2022-09-11T07:37:37.586Z,23.83
2022-09-11T07:40:05.482Z,22.50
2022-09-11T07:42:36.215Z,22.48
2022-09-11T07:45:03.377Z,22.68
2022-09-11T07:47:33.823Z,22.85
2022-09-11T07:50:01.664Z,23.72
2022-09-11T07:52:30.045Z,23.06
2022-09-11T07:54:57.735Z,23.99
2022-09-11T07:57:25.389Z,24.03
2022-09-11T07:59:52.729Z,24.37
2022-09-11T08:02:20.659Z,23.91
2022-09-11T08:04:48.742Z,24.32
2022-09-11T08:07:17.075Z,24.03
2022-09-11T08:09:44.294Z,23.98
2022-09-11T08:12:12.147Z,23.83
2022-09-11T08:14:39.561Z,23.24
2022-09-11T08:17:07.063Z,23.22
2022-09-11T08:19:36.915Z,23.64
2022-09-11T08:22:04.157Z,24.49
2022-09-11T08:24:32.510Z,23.90
2022-09-11T08:27:00.368Z,24.42
2022-09-11T08:29:27.604Z,23.75
2022-09-11T08:31:57.137Z,24.98
2022-09-11T08:34:27.529Z,25.15
2022-09-11T08:36:54.868Z,24.63
2022-09-11T08:39:24.047Z,24.99
2022-09-11T08:41:54.304Z,23.68
2022-09-11T08:44:21.718Z,24.74
2022-09-11T08:46:51.094Z,25.22
2022-09-11T08:49:24.687Z,24.88
2022-09-11T08:51:52.776Z,25.17
2022-09-11T08:54:27.586Z,25.16
2022-09-11T08:56:57.334Z,25.77
2022-09-11T08:59:32.540Z,25.16
2022-09-11T09:02:00.097Z,25.20
2022-09-11T09:04:37.231Z,25.84
2022-09-11T09:07:13.577Z,25.70
2022-09-11T09:09:44.328Z,24.93
2022-09-11T09:12:21.008Z,25.37
2022-09-11T09:14:52.055Z,24.61
2022-09-11T09:17:20.217Z,25.10
2022-09-11T09:19:47.430Z,25.15
2022-09-11T09:22:25.722Z,24.05
2022-09-11T09:24:54.832Z,24.13
2022-09-11T09:27:30.391Z,24.48
2022-09-11T09:29:58.132Z,23.40
2022-09-11T09:32:28.917Z,24.93
2022-09-11T09:34:57.578Z,25.53
2022-09-11T09:37:26.335Z,24.20
2022-09-11T09:39:53.806Z,24.51
2022-09-11T09:42:28.261Z,24.56
2022-09-11T09:44:55.713Z,24.74
2022-09-11T09:47:22.836Z,23.99
2022-09-11T09:49:50.029Z,25.26
2022-09-11T09:52:21.437Z,25.32
2022-09-11T09:55:00.420Z,26.18
2022-09-11T09:57:32.389Z,25.46
2022-09-11T10:00:08.817Z,24.52
2022-09-11T10:02:45.434Z,26.00
2022-09-11T10:05:13.511Z,25.58
2022-09-11T10:07:47.649Z,26.15
2022-09-11T10:10:27.277Z,25.35
2022-09-11T10:13:17.298Z,26.01
2022-09-11T10:15:43.121Z,25.68
2022-09-11T10:18:23.444Z,25.76
2022-09-11T10:20:51.813Z,26.10
2022-09-11T10:23:25.888Z,26.24
2022-09-11T10:25:53.298Z,25.51
2022-09-11T10:28:24.173Z,25.61
2022-09-11T10:30:58.006Z,25.33
2022-09-11T10:33:26.723Z,24.67
2022-09-11T10:35:55.268Z,25.21
2022-09-11T10:38:45.976Z,25.43
2022-09-11T10:41:13.871Z,24.95
2022-09-11T10:43:53.053Z,24.94
2022-09-11T10:46:22.233Z,25.05
2022-09-11T10:48:55.242Z,24.64
2022-09-11T10:51:23.750Z,25.16
2022-09-11T10:53:51.590Z,24.99
2022-09-11T10:56:18.762Z,25.62
2022-09-11T10:58:46.350Z,24.94
2022-09-11T11:01:13.884Z,25.12
2022-09-11T11:03:41.058Z,25.91
2022-09-11T11:06:23.843Z,24.98
2022-09-11T11:09:08.738Z,24.70
2022-09-11T11:11:36.060Z,25.00
2022-09-11T11:14:06.038Z,25.62
2022-09-11T11:16:35.869Z,25.37
2022-09-11T11:19:06.913Z,24.54
2022-09-11T11:21:34.001Z,25.14
2022-09-11T11:24:24.609Z,24.60
2022-09-11T11:27:00.321Z,25.80
2022-09-11T11:29:30.521Z,25.14
2022-09-11T11:32:16.299Z,25.06
2022-09-11T11:34:44.113Z,25.09
2022-09-11T11:37:12.929Z,25.43
2022-09-11T11:40:00.529Z,24.68
2022-09-11T11:42:28.330Z,24.91
2022-09-11T11:45:16.555Z,25.58
2022-09-11T11:47:44.092Z,26.05
2022-09-11T11:50:14.120Z,25.54
2022-09-11T11:52:43.726Z,26.24
2022-09-11T11:55:25.580Z,25.48
2022-09-11T11:57:57.786Z,26.03
2022-09-11T12:00:25.966Z,26.61
2022-09-11T12:02:54.655Z,26.01
2022-09-11T12:05:26.316Z,25.68
2022-09-11T12:07:53.709Z,25.91
2022-09-11T12:10:22.278Z,25.94
2022-09-11T12:12:57.890Z,26.38
2022-09-11T12:15:25.891Z,25.66
2022-09-11T12:18:03.642Z,24.61
2022-09-11T12:20:32.075Z,23.77
2022-09-11T12:22:59.175Z,24.57
2022-09-11T12:25:29.996Z,23.85
2022-09-11T12:28:16.774Z,24.89
2022-09-11T12:30:59.383Z,24.65
2022-09-11T12:33:41.155Z,24.37
2022-09-11T12:36:08.779Z,23.41
2022-09-11T12:38:38.073Z,24.40
2022-09-11T12:41:09.224Z,24.67
2022-09-11T12:43:37.460Z,25.58
2022-09-11T12:46:06.190Z,25.16
2022-09-11T12:48:43.216Z,24.32
2022-09-11T12:51:19.452Z,24.96
2022-09-11T12:53:47.378Z,25.83
2022-09-11T12:56:22.020Z,26.06
2022-09-11T12:58:56.905Z,25.19
2022-09-11T13:01:25.304Z,25.92
2022-09-11T13:04:03.288Z,26.09
2022-09-11T13:06:43.365Z,26.33
2022-09-11T13:09:37.741Z,26.12
2022-09-11T13:12:23.765Z,25.99
2022-09-11T13:14:58.728Z,25.50
2022-09-11T13:17:26.081Z,25.63
2022-09-11T13:19:54.243Z,25.31
2022-09-11T13:22:22.516Z,25.08
2022-09-11T13:24:50.220Z,24.97
2022-09-11T13:27:26.608Z,25.31
2022-09-11T13:29:54.982Z,24.08
2022-09-11T13:32:22.453Z,24.57
2022-09-11T13:34:50.445Z,23.94
2022-09-11T13:37:40.444Z,24.08
2022-09-11T13:40:10.590Z,24.27
2022-09-11T13:42:38.079Z,24.79
2022-09-11T13:45:06.767Z,24.22
2022-09-11T13:47:39.985Z,24.41
2022-09-11T13:50:10.188Z,25.14
2022-09-11T13:52:37.904Z,24.98
2022-09-11T13:55:12.376Z,25.54
2022-09-11T13:57:58.982Z,25.58
2022-09-11T14:00:36.386Z,25.59
2022-09-11T14:03:04.668Z,24.95
2022-09-11T14:05:32.603Z,25.23
2022-09-11T14:08:04.770Z,24.32
2022-09-11T14:10:33.229Z,24.50
2022-09-11T14:13:03.827Z,24.76
2022-09-11T14:15:30.916Z,24.68
2022-09-11T14:18:01.885Z,24.72
2022-09-11T14:20:30.236Z,24.69
2022-09-11T14:22:58.659Z,25.17
2022-09-11T14:25:26.301Z,24.08
2022-09-11T14:27:53.420Z,23.72
2022-09-11T14:30:28.282Z,24.50
2022-09-11T14:33:14.548Z,25.02
2022-09-11T14:35:43.275Z,24.19
2022-09-11T14:38:11.570Z,23.60
2022-09-11T14:40:42.082Z,24.67
2022-09-11T14:43:10.008Z,24.21
2022-09-11T14:45:37.404Z,24.48
2022-09-11T14:48:09.831Z,23.89
2022-09-11T14:50:37.361Z,23.66
2022-09-11T14:53:04.755Z,24.54
2022-09-11T14:55:31.862Z,23.76
2022-09-11T14:57:59.021Z,25.33
2022-09-11T15:00:26.387Z,24.27
2022-09-11T15:02:54.259Z,24.72
2022-09-11T15:05:22.982Z,24.83
2022-09-11T15:07:50.787Z,24.37
2022-09-11T15:10:17.912Z,25.03
2022-09-11T15:12:45.033Z,24.67
2022-09-11T15:15:13.751Z,25.12
2022-09-11T15:17:40.867Z,25.49
2022-09-11T15:20:10.074Z,25.15
2022-09-11T15:22:38.285Z,24.97
2022-09-11T15:25:05.867Z,25.73
2022-09-11T15:27:33.027Z,25.00
2022-09-11T15:30:00.670Z,23.98
2022-09-11T15:32:27.857Z,23.96
2022-09-11T15:34:55.132Z,24.83
2022-09-11T15:37:24.133Z,23.61
2022-09-11T15:39:51.408Z,23.64
2022-09-11T15:42:18.573Z,24.56
2022-09-11T15:44:46.197Z,23.41
2022-09-11T15:47:14.387Z,23.46
2022-09-11T15:49:42.047Z,23.53
2022-09-11T15:52:09.445Z,24.39
2022-09-11T15:54:36.550Z,24.25
2022-09-11T15:57:03.665Z,24.25
2022-09-11T15:59:31.057Z,24.61
2022-09-11T16:01:59.392Z,24.10
2022-09-11T16:04:28.048Z,23.60
2022-09-11T16:06:55.219Z,23.93
2022-09-11T16:09:23.171Z,24.25
2022-09-11T16:11:50.779Z,24.45
2022-09-11T16:14:18.270Z,24.23
2022-09-11T16:16:48.070Z,25.12
2022-09-11T16:19:15.998Z,25.51
2022-09-11T16:21:43.412Z,24.69
2022-09-11T16:24:11.654Z,24.82
2022-09-11T16:26:39.789Z,24.01
2022-09-11T16:29:07.818Z,24.54
2022-09-11T16:31:35.008Z,24.06
2022-09-11T16:34:03.594Z,24.40
2022-09-11T16:36:31.803Z,24.46
2022-09-11T16:38:58.942Z,24.94
2022-09-11T16:41:26.344Z,24.03
2022-09-11T16:43:53.633Z,24.23
2022-09-11T16:46:22.196Z,24.74
2022-09-11T16:48:54.106Z,25.00
2022-09-11T16:51:23.520Z,23.93
2022-09-11T16:53:51.051Z,23.96
2022-09-11T16:56:20.146Z,24.12
2022-09-11T16:58:47.419Z,24.56
2022-09-11T17:01:19.329Z,24.62
2022-09-11T17:03:48.301Z,25.00
2022-09-11T17:06:16.301Z,24.91
2022-09-11T17:08:43.801Z,25.07
2022-09-11T17:11:14.448Z,25.22
2022-09-11T17:13:42.279Z,25.34
2022-09-11T17:16:16.071Z,25.24
2022-09-11T17:18:47.741Z,25.79
2022-09-11T17:21:15.301Z,25.86
2022-09-11T17:23:42.541Z,26.08
2022-09-11T17:26:10.544Z,26.29
2022-09-11T17:28:39.506Z,26.32
2022-09-11T17:31:07.879Z,26.55
2022-09-11T17:33:35.856Z,26.51
2022-09-11T17:36:03.699Z,26.67
2022-09-11T17:38:31.263Z,26.42
2022-09-11T17:40:59.661Z,26.29
2022-09-11T17:43:27.100Z,26.17
2022-09-11T17:46:11.169Z,25.99
2022-09-11T17:48:39.900Z,26.00
2022-09-11T17:51:11.720Z,25.66
2022-09-11T17:53:40.117Z,25.71
2022-09-11T17:56:09.925Z,25.04
2022-09-11T17:58:37.391Z,25.22
2022-09-11T18:01:06.175Z,24.83
2022-09-11T18:03:34.177Z,24.86
2022-09-11T18:06:02.162Z,25.08
2022-09-11T18:08:29.989Z,25.04
2022-09-11T18:11:01.462Z,24.66
2022-09-11T18:13:30.200Z,25.15
2022-09-11T18:15:57.852Z,24.47
2022-09-11T18:18:27.349Z,24.91
2022-09-11T18:20:55.608Z,23.92
2022-09-11T18:23:23.521Z,24.02
2022-09-11T18:25:51.150Z,23.42
2022-09-11T18:28:20.143Z,22.16
2022-09-11T18:30:49.820Z,23.18
2022-09-11T18:33:17.481Z,24.11
2022-09-11T18:35:46.903Z,23.54
2022-09-11T18:38:14.640Z,23.72
2022-09-11T18:40:42.174Z,24.05
2022-09-11T18:45:37.264Z,23.43
2022-09-11T18:48:04.854Z,23.44
2022-09-11T18:50:32.325Z,23.39
2022-09-11T18:53:00.201Z,22.92
2022-09-11T18:55:29.033Z,23.66
2022-09-11T18:57:57.505Z,24.02
2022-09-11T19:00:25.258Z,23.10
2022-09-11T19:02:54.237Z,23.01
2022-09-11T19:05:21.760Z,22.58
2022-09-11T19:07:49.381Z,22.54
2022-09-11T19:10:16.993Z,22.13
2022-09-11T19:12:44.183Z,22.51
2022-09-11T19:15:11.831Z,22.27
2022-09-11T19:17:39.241Z,22.26
2022-09-11T19:20:09.139Z,22.43
2022-09-11T19:22:36.558Z,22.56
2022-09-11T19:25:05.902Z,21.97
2022-09-11T19:27:33.380Z,22.55
2022-09-11T19:30:01.044Z,23.08
2022-09-11T19:32:28.579Z,22.77
2022-09-11T19:34:56.306Z,22.07
2022-09-11T19:37:24.463Z,22.19
2022-09-11T19:39:52.142Z,22.53
2022-09-11T19:42:19.556Z,23.00
2022-09-11T19:44:47.540Z,22.75
2022-09-11T19:47:14.882Z,22.56
2022-09-11T19:49:42.401Z,22.39
2022-09-11T19:52:11.955Z,21.61
2022-09-11T19:54:39.354Z,21.09
2022-09-11T19:57:06.997Z,21.50
2022-09-11T19:59:34.560Z,21.85
2022-09-11T20:02:01.826Z,21.71
2022-09-11T20:04:29.445Z,21.58
2022-09-11T20:06:56.645Z,22.38
2022-09-11T20:09:32.416Z,21.70
2022-09-11T20:12:01.171Z,20.92
2022-09-11T20:14:29.399Z,21.17
2022-09-11T20:16:56.507Z,21.32
2022-09-11T20:19:23.902Z,21.46
2022-09-11T20:21:51.073Z,20.97
2022-09-11T20:24:19.758Z,20.98
2022-09-11T20:26:47.226Z,20.76
2022-09-11T20:29:15.213Z,22.03
2022-09-11T20:31:47.915Z,21.27
2022-09-11T20:34:16.704Z,21.98
2022-09-11T20:36:43.824Z,22.15
2022-09-11T20:39:11.340Z,22.25
2022-09-11T20:41:39.313Z,21.92
2022-09-11T20:44:06.463Z,22.36
2022-09-11T20:46:33.609Z,22.49
2022-09-11T20:49:01.245Z,22.74
2022-09-11T20:51:28.466Z,22.76
2022-09-11T20:53:55.772Z,21.53
2022-09-11T20:56:23.942Z,22.03
2022-09-11T20:58:51.570Z,22.34
2022-09-11T21:01:21.346Z,22.85
2022-09-11T21:03:50.267Z,23.19
2022-09-11T21:06:20.022Z,23.19
2022-09-11T21:08:51.273Z,22.60
2022-09-11T21:11:21.194Z,22.37
2022-09-11T21:13:48.623Z,22.55
2022-09-11T21:16:16.517Z,22.25
2022-09-11T21:18:48.036Z,22.59
2022-09-11T21:21:15.469Z,22.84
2022-09-11T21:23:42.635Z,23.14
2022-09-11T21:26:11.962Z,22.27
2022-09-11T21:28:39.467Z,22.71
2022-09-11T21:31:06.653Z,22.74
2022-09-11T21:33:34.504Z,22.77
2022-09-11T21:36:01.946Z,23.08
2022-09-11T21:38:29.558Z,23.42
2022-09-11T21:40:57.303Z,23.43
2022-09-11T21:43:24.694Z,22.90
2022-09-11T21:45:51.994Z,22.36
2022-09-11T21:48:19.095Z,22.34
2022-09-11T21:50:46.495Z,22.90
2022-09-11T21:53:13.619Z,22.90
2022-09-11T21:55:43.121Z,22.55
2022-09-11T21:58:14.804Z,22.36
2022-09-11T22:00:43.132Z,22.28
2022-09-11T22:03:13.796Z,22.43
2022-09-11T22:05:45.908Z,22.10
2022-09-11T22:08:13.956Z,22.46
2022-09-11T22:10:41.810Z,22.57
2022-09-11T22:13:10.223Z,21.73
2022-09-11T22:15:40.846Z,22.17
2022-09-11T22:18:08.018Z,21.81
2022-09-11T22:20:38.183Z,22.01
2022-09-11T22:23:05.831Z,20.97
2022-09-11T22:25:33.837Z,20.50
2022-09-11T22:28:00.961Z,20.74
2022-09-11T22:30:30.385Z,20.95
2022-09-11T22:32:57.798Z,21.33
2022-09-11T22:35:24.944Z,21.51
2022-09-11T22:37:52.524Z,22.11
2022-09-11T22:40:19.647Z,22.34
2022-09-11T22:42:47.024Z,22.07
2022-09-11T22:45:14.463Z,22.03
2022-09-11T22:47:41.601Z,22.49
2022-09-11T22:50:09.482Z,23.09
2022-09-11T22:52:37.424Z,22.00
2022-09-11T22:55:05.148Z,22.14
2022-09-11T22:57:34.095Z,22.57
2022-09-11T23:00:01.871Z,22.67
2022-09-11T23:02:28.991Z,21.32
2022-09-11T23:05:14.894Z,21.89
2022-09-11T23:07:42.284Z,21.98
2022-09-11T23:10:10.513Z,21.91
2022-09-11T23:12:37.630Z,21.62
2022-09-11T23:15:05.703Z,21.14
2022-09-11T23:17:33.456Z,21.49
2022-09-11T23:20:00.635Z,20.73
2022-09-11T23:22:28.445Z,20.49
2022-09-11T23:24:55.565Z,21.06
2022-09-11T23:27:22.675Z,21.38
2022-09-11T23:29:50.099Z,20.75
2022-09-11T23:32:17.278Z,20.61
2022-09-11T23:34:44.411Z,20.16
2022-09-11T23:37:11.784Z,20.50
2022-09-11T23:39:38.937Z,20.55
2022-09-11T23:42:06.158Z,20.73
2022-09-11T23:44:33.537Z,20.32
2022-09-11T23:47:02.186Z,20.73
2022-09-11T23:49:36.200Z,20.16
2022-09-11T23:52:04.215Z,20.16
2022-09-11T23:54:31.356Z,19.99
2022-09-11T23:56:59.054Z,20.16
2022-09-11T23:59:26.766Z,19.96
